Time;durP1;ratioP1;P1;durP2;ratioP2;P2;SDS_P1;SDS_P2;PMS_P1;PMS_P2;Temp;Humidity;BMP_temperature;BMP_pressure;BME280_temperature;BME280_humidity;BME280_pressure;Samples;Min_cycle;Max_cycle;Signal;HPM_P1;HPM_P2
2022/08/28 00:00:36;;;;;;;5.05;1.15;;;;;;;11.39;100.00;101450.81;5036835;28;20634;-49
2022/08/28 00:03:01;;;;;;;1.33;0.75;;;;;;;11.32;100.00;101449.84;5043451;28;20030;-49
2022/08/28 00:05:29;;;;;;;2.33;1.77;;;;;;;11.29;100.00;101456.31;5035151;28;20040;-49
2022/08/28 00:07:56;;;;;;;2.28;1.15;;;;;;;11.25;100.00;101449.69;5037551;28;20570;-49
2022/08/28 00:10:22;;;;;;;0.90;0.70;;;;;;;11.24;100.00;101457.84;5030720;28;20029;-48
2022/08/28 00:12:50;;;;;;;1.90;0.77;;;;;;;11.21;100.00;101458.19;5036975;28;20045;-50
2022/08/28 00:15:19;;;;;;;0.93;0.90;;;;;;;11.18;100.00;101455.84;5028466;28;20091;-51
2022/08/28 00:17:44;;;;;;;1.33;0.77;;;;;;;11.11;100.00;101453.06;5038495;28;20029;-52
2022/08/28 00:20:12;;;;;;;3.00;0.43;;;;;;;11.06;100.00;101453.56;5033324;28;20034;-49
2022/08/28 00:22:39;;;;;;;1.92;0.55;;;;;;;11.01;100.00;101452.44;5030651;28;20021;-50
2022/08/28 00:25:06;;;;;;;2.60;1.20;;;;;;;10.98;100.00;101460.72;5030857;28;20044;-53
2022/08/28 00:30:15;;;;;;;1.55;0.40;;;;;;;10.91;100.00;101460.56;5029835;28;20051;-49
2022/08/28 00:32:41;;;;;;;6.22;0.43;;;;;;;10.88;100.00;101455.59;5030885;28;20033;-53
2022/08/28 00:35:07;;;;;;;5.05;0.63;;;;;;;10.87;100.00;101456.63;5027700;28;20089;-48
2022/08/28 00:37:33;;;;;;;1.58;0.50;;;;;;;10.88;100.00;101461.72;5032201;28;20029;-51
2022/08/28 00:39:59;;;;;;;1.48;0.65;;;;;;;10.89;100.00;101460.75;5035967;28;20490;-51
2022/08/28 00:42:24;;;;;;;2.85;0.30;;;;;;;10.86;100.00;101466.38;5028083;28;20033;-51
2022/08/28 00:44:49;;;;;;;2.80;0.85;;;;;;;10.81;100.00;101458.09;5029991;28;20059;-52
2022/08/28 00:47:15;;;;;;;2.40;0.30;;;;;;;10.78;100.00;101457.63;5024765;28;20084;-50
2022/08/28 00:49:49;;;;;;;1.88;0.85;;;;;;;10.73;100.00;101457.28;5038990;28;20441;-49
2022/08/28 00:52:17;;;;;;;1.23;0.95;;;;;;;10.71;100.00;101454.78;5035958;28;20025;-51
2022/08/28 00:54:47;;;;;;;2.75;0.45;;;;;;;10.68;100.00;101458.59;5030879;28;20036;-52
2022/08/28 00:57:16;;;;;;;1.67;0.57;;;;;;;10.67;100.00;101467.56;5035154;28;20025;-51
2022/08/28 00:59:42;;;;;;;0.95;0.65;;;;;;;10.66;100.00;101473.88;5032574;28;20064;-52
2022/08/28 01:02:08;;;;;;;1.27;0.22;;;;;;;10.64;100.00;101461.78;5031567;28;20088;-49
2022/08/28 01:04:34;;;;;;;0.98;0.20;;;;;;;10.63;100.00;101466.25;5022670;28;20079;-48
2022/08/28 01:07:05;;;;;;;1.85;0.47;;;;;;;10.61;100.00;101470.06;5025379;28;20033;-47
2022/08/28 01:09:32;;;;;;;9.30;0.90;;;;;;;10.63;100.00;101471.53;5031875;28;20147;-49
2022/08/28 01:12:05;;;;;;;0.52;0.52;;;;;;;10.61;100.00;101470.91;5027961;28;20045;-52
2022/08/28 01:14:32;;;;;;;0.93;0.40;;;;;;;10.59;100.00;101470.25;5023770;28;20179;-48
2022/08/28 01:16:59;;;;;;;1.67;1.10;;;;;;;10.55;100.00;101474.19;5037290;28;20044;-51
2022/08/28 01:19:30;;;;;;;0.57;0.17;;;;;;;10.53;100.00;101470.06;5030490;28;20047;-50
2022/08/28 01:22:01;;;;;;;0.30;0.13;;;;;;;10.50;100.00;101465.91;5028346;28;20043;-49
2022/08/28 01:24:27;;;;;;;1.42;0.82;;;;;;;10.49;100.00;101477.53;5032681;28;20049;-50
2022/08/28 01:26:53;;;;;;;0.35;0.20;;;;;;;10.48;100.00;101475.88;5033835;28;20033;-50
2022/08/28 01:29:19;;;;;;;0.98;0.47;;;;;;;10.46;100.00;101481.34;5034408;28;20339;-52
2022/08/28 01:31:46;;;;;;;1.38;0.40;;;;;;;10.42;100.00;101473.88;5032322;28;20040;-50
2022/08/28 01:34:12;;;;;;;0.98;0.50;;;;;;;10.42;100.00;101471.22;5028875;28;20036;-52
2022/08/28 01:36:38;;;;;;;1.05;0.13;;;;;;;10.38;100.00;101476.03;5033901;28;20048;-50
2022/08/28 01:39:09;;;;;;;2.55;0.47;;;;;;;10.35;100.00;101467.56;5033095;28;20064;-51
2022/08/28 01:41:38;;;;;;;0.88;0.80;;;;;;;10.33;100.00;101470.41;5031429;28;20683;-49
2022/08/28 01:44:05;;;;;;;1.50;0.40;;;;;;;10.32;100.00;101467.91;5027640;28;20032;-50
2022/08/28 01:46:30;;;;;;;0.52;0.17;;;;;;;10.31;100.00;101468.91;5034402;28;20568;-49
2022/08/28 01:48:56;;;;;;;0.30;0.00;;;;;;;10.27;100.00;101465.72;5038273;28;20049;-50
2022/08/28 01:51:21;;;;;;;1.77;0.93;;;;;;;10.25;100.00;101467.72;5033580;28;20033;-51
2022/08/28 01:53:46;;;;;;;2.05;0.20;;;;;;;10.25;100.00;101467.72;5031499;28;20053;-52
2022/08/28 01:56:15;;;;;;;1.15;0.68;;;;;;;10.23;100.00;101473.19;5032551;28;20034;-50
2022/08/28 01:58:41;;;;;;;1.95;0.32;;;;;;;10.21;100.00;101469.03;5038711;28;20060;-51
2022/08/28 02:01:12;;;;;;;1.70;0.40;;;;;;;10.17;100.00;101471.19;5042425;28;20033;-53
2022/08/28 02:03:38;;;;;;;0.60;0.40;;;;;;;10.14;100.00;101471.50;5032035;28;20025;-50
2022/08/28 02:06:05;;;;;;;0.93;0.22;;;;;;;10.15;100.00;101477.66;5023675;28;20033;-52
2022/08/28 02:08:30;;;;;;;1.58;0.20;;;;;;;10.17;100.00;101480.94;5037484;28;20038;-50
2022/08/28 02:10:56;;;;;;;2.38;0.30;;;;;;;10.12;100.00;101484.13;5030184;28;20064;-47
2022/08/28 02:13:21;;;;;;;1.65;0.10;;;;;;;10.07;100.00;101483.78;5035999;28;20038;-48
2022/08/28 02:15:47;;;;;;;1.00;0.15;;;;;;;10.05;100.00;101485.75;5027149;28;20040;-53
2022/08/28 02:18:13;;;;;;;1.20;0.20;;;;;;;10.01;100.00;101490.53;5039059;28;20486;-48
2022/08/28 02:20:41;;;;;;;2.60;0.50;;;;;;;9.98;100.00;101485.56;5039739;28;20386;-51
2022/08/28 02:23:07;;;;;;;1.27;0.20;;;;;;;9.95;100.00;101487.72;5035665;28;20049;-51
2022/08/28 02:25:33;;;;;;;5.25;1.25;;;;;;;9.96;100.00;101486.72;5040456;28;20029;-51
2022/08/28 02:27:58;;;;;;;0.80;0.30;;;;;;;9.93;100.00;101489.69;5041350;28;20571;-50
2022/08/28 02:30:23;;;;;;;1.75;0.32;;;;;;;9.92;100.00;101488.03;5031960;28;20084;-52
2022/08/28 02:32:50;;;;;;;1.30;0.30;;;;;;;9.89;100.00;101489.19;5040900;28;20472;-51
2022/08/28 02:35:17;;;;;;;0.10;0.10;;;;;;;9.87;100.00;101493.81;5038489;28;20056;-53
2022/08/28 02:37:44;;;;;;;0.98;0.30;;;;;;;9.83;100.00;101495.13;5043254;28;20029;-50
2022/08/28 02:40:13;;;;;;;0.75;0.38;;;;;;;9.81;100.00;101497.13;5043730;28;20098;-48
2022/08/28 02:42:39;;;;;;;2.63;0.77;;;;;;;9.78;100.00;101492.13;5031879;28;20017;-52
2022/08/28 02:45:07;;;;;;;1.27;0.40;;;;;;;9.77;100.00;101488.66;5038604;28;20033;-53
2022/08/28 02:47:32;;;;;;;2.70;0.45;;;;;;;9.75;100.00;101477.38;5039357;28;20017;-53
2022/08/28 02:49:57;;;;;;;0.60;0.10;;;;;;;9.74;100.00;101486.34;5037570;28;20339;-51
2022/08/28 02:52:23;;;;;;;0.40;0.20;;;;;;;9.69;100.00;101485.97;5032803;28;20018;-49
2022/08/28 02:54:49;;;;;;;0.17;0.17;;;;;;;9.67;100.00;101479.19;5034551;28;20474;-51
2022/08/28 02:57:15;;;;;;;0.32;0.10;;;;;;;9.64;100.00;101482.16;5042621;28;20382;-51
2022/08/28 02:59:42;;;;;;;0.90;0.20;;;;;;;9.59;100.00;101480.00;5040235;28;20041;-51
2022/08/28 03:02:07;;;;;;;3.22;0.22;;;;;;;9.57;100.00;101482.78;5042533;28;20072;-53
2022/08/28 03:04:35;;;;;;;3.50;0.20;;;;;;;9.53;100.00;101481.47;5041946;28;20052;-51
2022/08/28 03:07:00;;;;;;;3.00;0.10;;;;;;;9.52;100.00;101479.78;5035555;28;20040;-52
2022/08/28 03:09:26;;;;;;;1.48;0.30;;;;;;;9.52;100.00;101484.25;5035581;28;20033;-49
2022/08/28 03:11:53;;;;;;;1.00;0.10;;;;;;;9.48;100.00;101478.47;5035597;28;20053;-50
2022/08/28 03:14:19;;;;;;;3.90;1.38;;;;;;;9.50;100.00;101486.22;5036023;28;20519;-49
2022/08/28 03:16:45;;;;;;;0.10;0.10;;;;;;;9.51;100.00;101487.91;5039085;28;20095;-51
2022/08/28 03:19:10;;;;;;;1.10;0.55;;;;;;;9.53;100.00;101478.00;5036806;28;20033;-50
2022/08/28 03:21:35;;;;;;;2.35;0.20;;;;;;;9.54;100.00;101484.94;5040509;28;20029;-53
2022/08/28 03:24:01;;;;;;;5.00;0.47;;;;;;;9.57;100.00;101484.59;5036470;28;20144;-50
2022/08/28 03:26:26;;;;;;;0.20;0.10;;;;;;;9.58;100.00;101483.63;5046414;28;20033;-53
2022/08/28 03:28:52;;;;;;;1.27;0.75;;;;;;;9.57;100.00;101481.97;5046144;28;20398;-52
2022/08/28 03:31:22;;;;;;;1.83;0.45;;;;;;;9.55;100.00;101484.78;5037904;28;20064;-48
2022/08/28 03:33:47;;;;;;;2.47;0.00;;;;;;;9.54;100.00;101480.47;5034990;28;20099;-53
2022/08/28 03:36:20;;;;;;;1.38;0.75;;;;;;;9.52;100.00;101482.44;5040716;28;20498;-53
2022/08/28 03:38:46;;;;;;;1.52;0.10;;;;;;;9.50;100.00;101486.22;5039282;28;20044;-49
2022/08/28 03:41:14;;;;;;;6.68;0.30;;;;;;;9.43;100.00;101482.59;5026412;28;20029;-49
2022/08/28 03:43:39;;;;;;;0.25;0.20;;;;;;;9.39;100.00;101484.69;5034708;28;20116;-53
2022/08/28 03:46:06;;;;;;;0.20;0.10;;;;;;;9.37;100.00;101486.66;5042212;28;20119;-50
2022/08/28 03:48:37;;;;;;;0.10;0.10;;;;;;;9.31;100.00;101490.78;5031135;28;20129;-53
2022/08/28 03:51:12;;;;;;;0.47;0.17;;;;;;;9.27;100.00;101489.47;5033438;28;20522;-49
2022/08/28 03:53:38;;;;;;;4.28;0.70;;;;;;;9.25;100.00;101495.91;5035952;28;20038;-50
2022/08/28 03:56:12;;;;;;;0.38;0.00;;;;;;;9.24;100.00;101492.44;5040430;28;20017;-51
2022/08/28 03:58:39;;;;;;;1.90;0.30;;;;;;;9.22;100.00;101494.41;5033855;28;20470;-48
2022/08/28 04:01:05;;;;;;;0.28;0.20;;;;;;;9.21;100.00;101492.72;5042798;28;20033;-49
2022/08/28 04:03:31;;;;;;;1.70;0.35;;;;;;;9.17;100.00;101499.31;5038309;28;20482;-52
2022/08/28 04:05:56;;;;;;;0.20;0.08;;;;;;;9.14;100.00;101497.00;5042550;28;20137;-52
2022/08/28 04:08:22;;;;;;;3.30;0.10;;;;;;;9.12;100.00;101507.72;5041524;28;20041;-51
2022/08/28 04:10:49;;;;;;;2.63;0.30;;;;;;;9.12;100.00;101496.31;5032133;28;20028;-52
2022/08/28 04:13:17;;;;;;;0.65;0.10;;;;;;;9.10;100.00;101498.28;5037225;28;20072;-53
2022/08/28 04:15:42;;;;;;;3.78;0.68;;;;;;;9.11;100.00;101494.63;5039299;28;20393;-51
2022/08/28 04:18:09;;;;;;;0.45;0.30;;;;;;;9.13;100.00;101495.31;5038701;28;20040;-50
2022/08/28 04:20:35;;;;;;;0.45;0.10;;;;;;;9.12;100.00;101485.75;5032756;28;20454;-52
2022/08/28 04:23:02;;;;;;;0.30;0.20;;;;;;;9.10;100.00;101485.06;5035552;28;20041;-50
2022/08/28 04:25:28;;;;;;;1.10;0.17;;;;;;;9.05;100.00;101487.34;5043193;28;20021;-53
2022/08/28 04:27:53;;;;;;;0.95;0.38;;;;;;;9.01;100.00;101485.97;5042391;28;20075;-50
2022/08/28 04:30:19;;;;;;;2.78;0.70;;;;;;;9.01;100.00;101488.63;5031454;28;20482;-49
2022/08/28 04:32:45;;;;;;;1.50;0.47;;;;;;;8.97;100.00;101493.41;5040587;28;20111;-52
2022/08/28 04:35:11;;;;;;;0.55;0.20;;;;;;;8.97;100.00;101489.94;5033951;28;20056;-50
2022/08/28 04:37:37;;;;;;;0.90;0.30;;;;;;;8.93;100.00;101484.97;5041318;28;20025;-53
2022/08/28 04:40:07;;;;;;;1.45;0.13;;;;;;;8.93;100.00;101494.69;5029225;28;20404;-50
2022/08/28 04:42:32;;;;;;;0.10;0.10;;;;;;;8.93;100.00;101484.97;5032170;28;20386;-51
2022/08/28 04:44:58;;;;;;;0.10;0.00;;;;;;;8.92;100.00;101493.03;5031561;28;20360;-49
2022/08/28 04:47:25;;;;;;;0.10;0.10;;;;;;;8.90;100.00;101493.19;5037734;28;20132;-52
2022/08/28 04:49:50;;;;;;;1.08;0.13;;;;;;;8.90;100.00;101495.84;5034400;28;20049;-53
2022/08/28 04:52:15;;;;;;;1.85;0.13;;;;;;;8.91;100.00;101494.03;5039310;28;20033;-50
2022/08/28 04:54:41;;;;;;;0.20;0.20;;;;;;;8.93;100.00;101497.34;5038920;28;20116;-53
2022/08/28 04:57:07;;;;;;;1.98;0.10;;;;;;;8.95;100.00;101498.84;5044274;28;20382;-51
2022/08/28 04:59:33;;;;;;;2.25;0.10;;;;;;;8.99;100.00;101506.50;5044581;28;20467;-48
2022/08/28 05:01:58;;;;;;;0.63;0.40;;;;;;;9.01;100.00;101499.22;5038634;28;20040;-53
2022/08/28 05:04:25;;;;;;;0.77;0.13;;;;;;;8.99;100.00;101507.31;5039860;28;20035;-55
2022/08/28 05:06:51;;;;;;;1.27;0.10;;;;;;;8.97;100.00;101503.16;5034628;28;20964;-53
2022/08/28 05:09:18;;;;;;;0.57;0.05;;;;;;;8.94;100.00;101509.59;5030498;28;20037;-52
2022/08/28 05:11:44;;;;;;;1.33;0.00;;;;;;;8.92;100.00;101512.38;5033200;28;20128;-50
2022/08/28 05:14:10;;;;;;;0.35;0.00;;;;;;;8.91;100.00;101510.75;5037362;28;20124;-52
2022/08/28 05:16:44;;;;;;;3.10;0.00;;;;;;;8.93;100.00;101511.41;5047566;28;20020;-51
2022/08/28 05:19:10;;;;;;;3.50;0.20;;;;;;;8.90;100.00;101513.53;5036078;28;20029;-55
2022/08/28 05:21:35;;;;;;;2.67;0.38;;;;;;;8.90;100.00;101518.81;5033943;28;20537;-53
2022/08/28 05:24:01;;;;;;;1.30;0.05;;;;;;;8.91;100.00;101525.78;5034667;28;20466;-50
2022/08/28 05:26:27;;;;;;;1.00;0.20;;;;;;;8.94;100.00;101530.75;5034995;28;20028;-50
2022/08/28 05:28:54;;;;;;;1.50;0.10;;;;;;;8.93;100.00;101524.66;5040143;28;20032;-48
2022/08/28 05:31:21;;;;;;;0.10;0.00;;;;;;;8.93;100.00;101532.59;5034536;28;20048;-51
2022/08/28 05:33:47;;;;;;;2.63;0.10;;;;;;;8.92;100.00;101536.19;5034530;28;20142;-53
2022/08/28 05:36:16;;;;;;;0.10;0.00;;;;;;;8.93;100.00;101534.38;5042396;28;20389;-53
2022/08/28 05:38:43;;;;;;;1.60;0.77;;;;;;;8.94;100.00;101531.59;5035608;28;20026;-51
2022/08/28 05:41:09;;;;;;;0.35;0.10;;;;;;;8.97;100.00;101538.38;5031334;28;20029;-48
2022/08/28 05:43:35;;;;;;;0.55;0.10;;;;;;;8.97;100.00;101535.72;5036692;28;20341;-51
2022/08/28 05:46:03;;;;;;;0.20;0.00;;;;;;;8.99;100.00;101541.72;5037374;28;20033;-50
2022/08/28 05:48:30;;;;;;;1.25;0.20;;;;;;;9.01;100.00;101545.03;5042821;28;20135;-51
2022/08/28 05:51:06;;;;;;;1.20;0.03;;;;;;;9.03;100.00;101547.50;5027215;28;20492;-50
2022/08/28 05:53:40;;;;;;;2.47;0.00;;;;;;;9.08;100.00;101550.53;5035907;28;20043;-50
2022/08/28 05:56:13;;;;;;;0.20;0.10;;;;;;;9.15;100.00;101547.09;5038279;28;20030;-52
2022/08/28 05:58:39;;;;;;;0.10;0.10;;;;;;;9.23;100.00;101546.31;5045798;28;20021;-54
2022/08/28 06:01:15;;;;;;;1.13;0.77;;;;;;;9.29;100.00;101545.72;5038644;28;20474;-49
2022/08/28 06:03:42;;;;;;;0.20;0.20;;;;;;;9.35;100.00;101545.06;5033714;28;20025;-53
2022/08/28 06:06:09;;;;;;;0.30;0.30;;;;;;;9.42;100.00;101544.44;5036146;28;20192;-51
2022/08/28 06:08:34;;;;;;;0.88;0.22;;;;;;;9.53;100.00;101560.06;5035973;28;20026;-51
2022/08/28 06:11:04;;;;;;;0.38;0.25;;;;;;;9.64;100.00;101556.31;5037867;28;20040;-55
2022/08/28 06:13:30;;;;;;;0.82;0.10;;;;;;;9.75;100.00;101561.31;5033690;28;20132;-52
2022/08/28 06:15:55;;;;;;;0.10;0.00;;;;;;;9.89;100.00;101567.84;5042792;28;20501;-52
2022/08/28 06:18:21;;;;;;;1.95;0.30;;;;;;;10.05;100.00;101570.53;5040729;28;20032;-51
2022/08/28 06:20:47;;;;;;;0.00;0.00;;;;;;;10.30;100.00;101582.06;5034660;28;20083;-49
2022/08/28 06:23:18;;;;;;;2.08;0.10;;;;;;;10.51;100.00;101581.63;5030897;28;20025;-55
2022/08/28 06:25:45;;;;;;;0.30;0.30;;;;;;;10.75;100.00;101585.28;5041050;28;20035;-48
2022/08/28 06:28:13;;;;;;;1.65;0.60;;;;;;;10.98;100.00;101588.94;5038878;28;20637;-53
2022/08/28 06:30:39;;;;;;;1.20;0.40;;;;;;;11.26;100.00;101583.28;5031761;28;20021;-52
2022/08/28 06:33:05;;;;;;;6.10;0.50;;;;;;;11.47;100.00;101588.03;5038841;28;20502;-54
2022/08/28 06:35:31;;;;;;;1.85;0.40;;;;;;;11.71;100.00;101592.44;5040529;28;20482;-54
2022/08/28 06:37:57;;;;;;;3.83;0.10;;;;;;;11.93;100.00;101586.41;5033409;28;20033;-54
2022/08/28 06:40:24;;;;;;;1.20;0.10;;;;;;;12.17;100.00;101582.81;5037422;28;20040;-54
2022/08/28 06:42:50;;;;;;;0.88;0.30;;;;;;;12.35;100.00;101587.84;5043204;28;20547;-55
2022/08/28 06:45:15;;;;;;;1.63;0.40;;;;;;;12.44;100.00;101586.81;5045308;28;20029;-52
2022/08/28 06:47:40;;;;;;;0.52;0.00;;;;;;;12.54;100.00;101588.41;5042037;28;20029;-55
2022/08/28 06:50:06;;;;;;;0.88;0.10;;;;;;;12.65;100.00;101590.66;5033685;28;20486;-52
2022/08/28 06:52:31;;;;;;;0.65;0.35;;;;;;;12.75;100.00;101596.56;5039373;28;20021;-50
2022/08/28 06:54:57;;;;;;;0.45;0.00;;;;;;;12.80;100.00;101591.53;5039507;28;20068;-52
2022/08/28 06:57:24;;;;;;;0.80;0.20;;;;;;;12.89;100.00;101602.94;5045621;28;20478;-49
2022/08/28 06:59:49;;;;;;;1.30;0.20;;;;;;;12.95;100.00;101596.06;5040747;28;20075;-53
2022/08/28 07:02:15;;;;;;;5.35;0.17;;;;;;;13.05;100.00;101597.47;5044408;28;20390;-50
2022/08/28 07:04:40;;;;;;;0.50;0.25;;;;;;;13.10;100.00;101595.09;5033616;28;20035;-49
2022/08/28 07:07:06;;;;;;;2.88;0.10;;;;;;;13.19;100.00;101595.88;5038769;28;20051;-54
2022/08/28 07:09:31;;;;;;;2.05;0.20;;;;;;;13.31;100.00;101596.25;5037979;28;20466;-49
2022/08/28 07:11:57;;;;;;;1.08;0.00;;;;;;;13.42;100.00;101593.16;5046063;28;20052;-52
2022/08/28 07:14:22;;;;;;;0.75;0.20;;;;;;;13.55;100.00;101595.19;5029404;28;20091;-54
2022/08/28 07:16:48;;;;;;;0.47;0.00;;;;;;;13.69;100.00;101593.53;5030986;28;20021;-54
2022/08/28 07:19:16;;;;;;;3.92;0.30;;;;;;;13.83;100.00;101599.88;5024719;28;20474;-48
2022/08/28 07:21:43;;;;;;;2.63;0.08;;;;;;;13.96;100.00;101592.88;5039090;28;20036;-55
2022/08/28 07:24:11;;;;;;;3.92;0.25;;;;;;;14.12;100.00;101593.66;5035029;28;20021;-48
2022/08/28 07:26:40;;;;;;;1.77;0.15;;;;;;;14.31;100.00;101594.91;5033244;28;20381;-48
2022/08/28 07:29:06;;;;;;;3.63;0.47;;;;;;;14.36;100.00;101577.31;5036100;28;20386;-50
2022/08/28 07:31:32;;;;;;;0.32;0.00;;;;;;;14.47;100.00;101583.19;5040691;28;20521;-48
2022/08/28 07:33:58;;;;;;;0.88;0.20;;;;;;;14.62;100.00;101578.63;5041943;28;20045;-51
2022/08/28 07:36:26;;;;;;;6.13;0.40;;;;;;;14.79;100.00;101571.19;5040221;28;20382;-54
2022/08/28 07:38:56;;;;;;;0.57;0.45;;;;;;;14.99;100.00;101566.00;5039866;28;20030;-53
2022/08/28 07:41:27;;;;;;;1.20;0.40;;;;;;;15.08;100.00;101566.72;5037565;28;20029;-49
2022/08/28 07:46:38;;;;;;;0.80;0.20;;;;;;;15.37;100.00;101550.44;5037984;28;20457;-51
2022/08/28 07:49:05;;;;;;;2.08;0.38;;;;;;;15.47;100.00;101550.91;5036441;28;20141;-53
2022/08/28 07:51:30;;;;;;;1.75;0.28;;;;;;;15.55;100.00;101536.56;5041749;28;20489;-52
2022/08/28 07:53:56;;;;;;;3.03;1.35;;;;;;;15.70;100.00;101534.63;5032598;28;20041;-53
2022/08/28 07:56:23;;;;;;;1.85;0.13;;;;;;;15.69;100.00;101526.78;5034884;28;20466;-53
2022/08/28 07:58:48;;;;;;;1.17;0.15;;;;;;;15.64;100.00;101526.53;5028835;28;20378;-51
2022/08/28 08:01:16;;;;;;;1.50;0.55;;;;;;;15.65;100.00;101528.19;5037961;28;20021;-51
2022/08/28 08:03:41;;;;;;;4.25;0.95;;;;;;;15.70;100.00;101531.13;5033294;28;20030;-49
2022/08/28 08:06:07;;;;;;;3.42;0.52;;;;;;;15.71;100.00;101527.41;5039019;28;20056;-53
2022/08/28 08:08:33;;;;;;;1.60;0.15;;;;;;;15.83;100.00;101523.16;5034891;28;20025;-56
2022/08/28 08:11:10;;;;;;;3.53;0.32;;;;;;;16.12;100.00;101511.28;5031379;28;20032;-54
2022/08/28 08:13:37;;;;;;;5.72;0.15;;;;;;;16.36;100.00;101512.56;5036881;28;20040;-52
2022/08/28 08:16:11;;;;;;;4.82;0.85;;;;;;;16.48;100.00;101520.00;5040421;28;20039;-52
2022/08/28 08:18:38;;;;;;;1.35;0.05;;;;;;;16.65;100.00;101518.56;5029271;28;20112;-54
2022/08/28 08:21:05;;;;;;;4.55;0.80;;;;;;;16.87;100.00;101507.66;5034891;28;20037;-48
2022/08/28 08:23:33;;;;;;;0.95;0.40;;;;;;;17.06;100.00;101514.03;5030877;28;20498;-50
2022/08/28 08:26:03;;;;;;;2.20;0.00;;;;;;;17.28;100.00;101514.59;5031314;28;20162;-53
2022/08/28 08:28:29;;;;;;;2.42;0.13;;;;;;;17.29;100.00;101510.88;5034865;28;20037;-50
2022/08/28 08:31:14;;;;;;;1.58;0.32;;;;;;;17.17;100.00;101500.81;5026560;28;20067;-51
2022/08/28 08:33:42;;;;;;;2.58;0.30;;;;;;;17.25;100.00;101496.28;5037877;28;20079;-53
2022/08/28 08:36:09;;;;;;;3.20;1.48;;;;;;;17.28;100.00;101499.34;5015237;28;21508;-50
2022/08/28 08:38:36;;;;;;;0.75;0.25;;;;;;;17.26;100.00;101505.94;5032596;28;20052;-50
2022/08/28 08:41:16;;;;;;;2.10;0.50;;;;;;;17.38;100.00;101504.28;5033602;28;20128;-50
2022/08/28 08:43:54;;;;;;;0.38;0.25;;;;;;;17.49;100.00;101500.91;5026333;28;20029;-52
2022/08/28 08:46:30;;;;;;;1.60;0.20;;;;;;;17.66;100.00;101499.41;5028955;28;20097;-53
2022/08/28 08:49:01;;;;;;;2.40;0.10;;;;;;;17.87;100.00;101487.56;5038147;28;20628;-48
2022/08/28 08:51:38;;;;;;;1.85;0.10;;;;;;;18.12;100.00;101492.16;5031351;28;20020;-55
2022/08/28 08:54:09;;;;;;;3.60;0.70;;;;;;;18.40;100.00;101497.13;5026463;28;21178;-52
2022/08/28 08:56:35;;;;;;;2.80;0.47;;;;;;;18.61;100.00;101476.31;5029528;28;20033;-51
2022/08/28 08:59:02;;;;;;;1.27;0.10;;;;;;;18.82;100.00;101489.41;5030276;28;20033;-55
2022/08/28 09:01:37;;;;;;;2.47;0.22;;;;;;;18.98;100.00;101484.50;5025465;28;20490;-49
2022/08/28 09:04:24;;;;;;;2.53;1.05;;;;;;;18.94;100.00;101482.22;5020002;28;20425;-52
2022/08/28 09:07:21;;;;;;;2.22;0.10;;;;;;;18.66;100.00;101485.34;5019978;28;20036;-53
2022/08/28 09:09:51;;;;;;;7.88;0.75;;;;;;;18.30;100.00;101489.59;5024850;28;20037;-53
2022/08/28 09:12:19;;;;;;;4.53;0.30;;;;;;;18.19;100.00;101484.91;5035025;28;20084;-51
2022/08/28 09:15:04;;;;;;;0.47;0.43;;;;;;;18.51;100.00;101496.44;5033034;28;20064;-50
2022/08/28 09:17:47;;;;;;;3.92;0.30;;;;;;;18.74;100.00;101484.25;5029770;28;20387;-50
2022/08/28 09:20:19;;;;;;;1.30;0.10;;;;;;;19.00;100.00;101491.28;5029416;28;20029;-51
2022/08/28 09:22:47;;;;;;;3.92;1.20;;;;;;;19.13;100.00;101491.16;5032185;28;20108;-50
2022/08/28 09:25:48;;;;;;;1.23;0.10;;;;;;;19.39;100.00;101473.88;5031551;28;20406;-50
2022/08/28 09:28:26;;;;;;;0.60;0.00;;;;;;;19.57;100.00;101483.00;5033595;28;20430;-53
2022/08/28 09:30:55;;;;;;;2.60;0.32;;;;;;;19.51;100.00;101481.19;5036898;28;20430;-52
2022/08/28 09:33:47;;;;;;;0.95;0.00;;;;;;;19.68;100.00;101476.03;5036095;28;20083;-56
2022/08/28 09:36:32;;;;;;;21.10;1.77;;;;;;;19.86;100.00;101480.56;5032927;28;20025;-49
2022/08/28 09:39:22;;;;;;;3.60;0.10;;;;;;;20.00;100.00;101479.31;5024985;28;20502;-51
2022/08/28 09:44:56;;;;;;;1.65;0.10;;;;;;;20.47;100.00;101466.78;5037569;28;20066;-53
2022/08/28 09:47:51;;;;;;;1.38;0.25;;;;;;;20.52;100.00;101470.63;5035474;28;20554;-57
2022/08/28 09:50:25;;;;;;;1.17;0.30;;;;;;;20.62;100.00;101474.41;5032370;28;20106;-52
2022/08/28 09:52:53;;;;;;;0.95;0.25;;;;;;;20.73;100.00;101464.72;5035727;28;20041;-53
2022/08/28 09:56:01;;;;;;;7.43;0.95;;;;;;;20.49;100.00;101470.03;5038829;28;20022;-52
2022/08/28 09:58:36;;;;;;;1.83;0.57;;;;;;;20.46;100.00;101473.19;5034603;28;20133;-55
2022/08/28 10:01:36;;;;;;;2.10;0.47;;;;;;;20.38;100.00;101464.66;5022115;28;20659;-49
2022/08/28 10:04:30;;;;;;;1.13;0.52;;;;;;;20.33;100.00;101456.44;5033257;28;20710;-49
2022/08/28 10:07:24;;;;;;;3.35;0.98;;;;;;;20.48;100.00;101460.31;5032856;28;20503;-50
2022/08/28 10:10:05;;;;;;;2.72;0.80;;;;;;;20.82;100.00;101454.38;5037799;28;20053;-50
2022/08/28 10:12:44;;;;;;;2.20;0.25;;;;;;;20.95;100.00;101454.13;5037115;28;20485;-55
2022/08/28 10:15:39;;;;;;;0.82;0.20;;;;;;;20.96;100.00;101454.94;5042164;28;20036;-55
2022/08/28 10:18:28;;;;;;;1.67;0.82;;;;;;;20.94;100.00;101452.50;5049413;28;20055;-53
2022/08/28 10:21:16;;;;;;;4.55;0.20;;;;;;;20.89;100.00;101458.59;5041837;28;20490;-54
2022/08/28 10:24:00;;;;;;;2.47;0.17;;;;;;;20.99;100.00;101460.72;5043125;28;20099;-54
2022/08/28 10:26:55;;;;;;;1.52;0.30;;;;;;;21.18;100.00;101455.97;5038202;28;20040;-51
2022/08/28 10:29:41;;;;;;;1.17;0.15;;;;;;;21.18;100.00;101457.84;5037555;28;20064;-50
2022/08/28 10:32:33;;;;;;;0.52;0.50;;;;;;;21.33;100.00;101455.47;5039033;28;20124;-50
2022/08/28 10:35:01;;;;;;;;;;;;;;;21.21;100.00;101451.97;5036160;28;20428;-51
2022/08/28 10:37:33;;;;;;;0.17;0.17;;;;;;;21.16;100.00;101449.19;5048347;28;19963;-56
2022/08/28 10:40:12;;;;;;;1.98;0.10;;;;;;;20.84;100.00;101447.72;5039046;28;20056;-49
2022/08/28 10:42:43;;;;;;;6.65;0.20;;;;;;;20.69;100.00;101450.88;5034406;28;20104;-53
2022/08/28 10:45:24;;;;;;;4.03;0.23;;;;;;;20.79;100.00;101449.47;5036251;28;20037;-47
2022/08/28 10:48:09;;;;;;;;;;;;;;;21.12;100.00;101448.84;5031995;28;20596;-59
2022/08/28 10:50:49;;;;;;;2.60;0.20;;;;;;;21.56;100.00;101447.34;5034023;28;19920;-49
2022/08/28 10:53:21;;;;;;;0.80;0.10;;;;;;;21.44;100.00;101441.16;5037532;28;20118;-55
2022/08/28 10:55:55;;;;;;;1.25;0.05;;;;;;;21.53;100.00;101449.72;5032729;28;20386;-51
2022/08/28 10:58:26;;;;;;;0.95;0.00;;;;;;;21.61;100.00;101451.16;5036865;28;20064;-51
2022/08/28 11:00:55;;;;;;;0.57;0.05;;;;;;;21.65;100.00;101442.34;5034153;28;20430;-55
2022/08/28 11:03:24;;;;;;;0.82;0.10;;;;;;;21.60;100.00;101438.75;5029979;28;20424;-56
2022/08/28 11:06:02;;;;;;;0.95;0.08;;;;;;;21.63;100.00;101446.34;5029476;28;20057;-55
2022/08/28 11:08:32;;;;;;;0.45;0.15;;;;;;;21.62;100.00;101444.72;5038639;28;20060;-49
2022/08/28 11:11:00;;;;;;;3.30;0.10;;;;;;;21.56;100.00;101439.25;5032356;28;20386;-53
2022/08/28 11:13:48;;;;;;;0.93;0.05;;;;;;;21.74;100.00;101442.81;5022906;28;20488;-55
2022/08/28 11:16:28;;;;;;;0.90;0.60;;;;;;;22.25;100.00;101430.19;5042868;28;20060;-55
2022/08/28 11:18:59;;;;;;;6.47;0.52;;;;;;;22.46;100.00;101439.44;5032267;28;20029;-50
2022/08/28 11:21:34;;;;;;;3.55;0.20;;;;;;;22.49;100.00;101432.72;5028125;28;20477;-57
2022/08/28 11:24:08;;;;;;;0.45;0.10;;;;;;;22.70;100.00;101431.16;5024641;28;20029;-45
2022/08/28 11:27:02;;;;;;;0.85;0.10;;;;;;;22.63;100.00;101431.31;5029572;28;20098;-54
2022/08/28 11:30:05;;;;;;;1.00;0.10;;;;;;;23.00;100.00;101428.03;5040789;28;20025;-52
2022/08/28 11:32:30;;;;;;;0.70;0.00;;;;;;;23.20;100.00;101422.88;5031486;28;20033;-49
2022/08/28 11:34:58;;;;;;;2.57;0.00;;;;;;;23.13;100.00;101427.69;5023987;28;20541;-52
2022/08/28 11:37:40;;;;;;;0.38;0.05;;;;;;;22.82;100.00;101432.66;5037254;28;20274;-52
2022/08/28 11:40:17;;;;;;;;;;;;;;;22.79;100.00;101422.34;5032300;28;20029;-52
2022/08/28 11:42:47;;;;;;;0.50;0.10;;;;;;;22.73;100.00;101423.34;5029497;28;19925;-54